KSNAKPSP

Guest
Details From KSNA - Orange County - John Wayne
To KPSP - Palm Springs Intl
Flight Number -
Tags generated
Created
Modified
Stats Distance 69 nm / 127 km
Max Altitude 8,900 ft / 2,713 m
Waypoints 3
Social Downloads 0
Likes 0
Share VATSIM

Download

Looking for another format? Having issues loading an existing format? Contact us
Advertisement - Login to hide

Notes

Basic altitude profile: - Ascent Rate: 2500ft/min - Ascent Speed: 250kts - Cruise Altitude: 35000ft - Cruise Speed: 420kts - Descent Rate: 1500ft/min - Descent Speed: 250kts Options: - Use NATs: no - Use PACOTS: no - Use low airways: yes - Use high airways: no

Route

KSNA NIKKL KPSP

ID Type Via Altitude Latitude Longitude Leg Dist Tot Dist Heading (true) Name
O KSNA APT - 0 ft / 0 m 33.67611˚ -117.86764˚ - 0 nm - Orange County - John Wayne
NIKKL FIX - 8,900 ft / 2,713 m 33.73086˚ -117.37294˚ 24 nm 24 nm 82° / 83° -
O KPSP APT - 0 ft / 0 m 33.82968˚ -116.50622˚ 43 nm 68 nm 82° / 82° Palm Springs Intl

Altitude Profile

Advertisement - Login to hide

KSNA

Details ICAO KSNA (SNA)
Name Orange County - John Wayne
Region United States
Timezone America/Los_Angeles (UTC-8.0)
Stats Elevation 56 ft / 17 m (AMSL)
Location 33.676112° -117.867636°
Runways 2
Magnetic Variation 11.845° E

METAR

KSNA 141953Z 24006KT 10SM FEW200 19/09 A3000 RMK AO2 RAE1854 SLP159 P0000 T01940089

Decode

TAF

TAF AMD KSNA 141855Z 1419/1518 25007KT P6SM SKC WS020/06025KT FM142200 04009KT P6SM SKC FM150200 VRB04KT P6SM SKC WS005/06035KT FM150800 VRB04KT P6SM SKC

Decode

Departure Runways

ID Width Length Bearing (true) Bearing (mag) Surface Threshold Offset Overrun Length
01L 151 ft / 46 m 5,711 ft / 1,741 m 27.81° 15.96° Asphalt 0 ft / 0 m 1,050 ft / 320 m
01R 75 ft / 23 m 2,892 ft / 881 m 27.80° 15.95° Asphalt 0 ft / 0 m 400 ft / 122 m
19L 75 ft / 23 m 2,892 ft / 881 m 207.80° 195.95° Asphalt 0 ft / 0 m 151 ft / 46 m
19R 151 ft / 46 m 5,711 ft / 1,741 m 207.81° 195.96° Asphalt 0 ft / 0 m 194 ft / 59 m

KPSP

Details ICAO KPSP (PSP)
Name Palm Springs Intl
Region United States
Timezone America/Los_Angeles (UTC-8.0)
Stats Elevation 477 ft / 145 m (AMSL)
Location 33.829677° -116.506218°
Runways 2
Magnetic Variation 11.580° E

METAR

KPSP 141953Z 02013KT 10SM CLR 28/M11 A3008 RMK AO2 SLP184 T02781111

Decode

TAF

TAF KPSP 141720Z 1418/1518 01012G22KT P6SM SKC FM150000 32008KT P6SM SKC FM151400 VRB05KT P6SM SKC

Decode

Destination Runways

ID Width Length Bearing (true) Bearing (mag) Surface Threshold Offset Overrun Length
13L 75 ft / 23 m 4,958 ft / 1,511 m 143.52° 131.94° Asphalt 0 ft / 0 m 151 ft / 46 m
13R 151 ft / 46 m 10,012 ft / 3,052 m 143.52° 131.94° Asphalt 2,999 ft / 914 m 200 ft / 61 m
31L 151 ft / 46 m 10,012 ft / 3,052 m 323.53° 311.95° Asphalt 1,499 ft / 457 m 200 ft / 61 m
31R 75 ft / 23 m 4,958 ft / 1,511 m 323.53° 311.95° Asphalt 0 ft / 0 m 151 ft / 46 m

Popular Alternatives